sensor_id;sensor_type;location;lat;lon;timestamp;temperature;humidity
14527;DHT22;7350;51.208;4.238;2023-05-10T00:35:55;19.90;99.90
14527;DHT22;7350;51.208;4.238;2023-05-10T00:44:28;19.90;99.90
14527;DHT22;7350;51.208;4.238;2023-05-10T00:46:56;19.90;99.90
14527;DHT22;7350;51.208;4.238;2023-05-10T00:49:23;19.90;99.90
14527;DHT22;7350;51.208;4.238;2023-05-10T00:51:52;20.00;99.90
14527;DHT22;7350;51.208;4.238;2023-05-10T00:54:19;19.90;99.90
14527;DHT22;7350;51.208;4.238;2023-05-10T00:56:46;19.90;99.90
14527;DHT22;7350;51.208;4.238;2023-05-10T00:59:15;19.90;99.90
14527;DHT22;7350;51.208;4.238;2023-05-10T01:01:43;20.00;99.90
14527;DHT22;7350;51.208;4.238;2023-05-10T01:04:14;20.00;99.90
14527;DHT22;7350;51.208;4.238;2023-05-10T01:06:42;20.00;99.90
14527;DHT22;7350;51.208;4.238;2023-05-10T01:09:10;20.00;99.90
14527;DHT22;7350;51.208;4.238;2023-05-10T01:11:38;20.00;99.90
14527;DHT22;7350;51.208;4.238;2023-05-10T01:14:06;20.00;99.90
14527;DHT22;7350;51.208;4.238;2023-05-10T01:16:36;19.90;99.90
14527;DHT22;7350;51.208;4.238;2023-05-10T01:19:06;19.90;99.90
14527;DHT22;7350;51.208;4.238;2023-05-10T01:21:43;19.90;99.90
14527;DHT22;7350;51.208;4.238;2023-05-10T01:24:51;20.00;99.90
14527;DHT22;7350;51.208;4.238;2023-05-10T01:27:48;19.90;99.90
14527;DHT22;7350;51.208;4.238;2023-05-10T01:30:37;19.90;99.90
14527;DHT22;7350;51.208;4.238;2023-05-10T01:33:16;19.90;99.90
14527;DHT22;7350;51.208;4.238;2023-05-10T01:35:54;19.90;99.90
14527;DHT22;7350;51.208;4.238;2023-05-10T01:38:27;19.90;99.90
14527;DHT22;7350;51.208;4.238;2023-05-10T01:41:12;19.90;99.90
14527;DHT22;7350;51.208;4.238;2023-05-10T01:43:46;19.90;99.90
14527;DHT22;7350;51.208;4.238;2023-05-10T01:46:17;19.90;99.90
14527;DHT22;7350;51.208;4.238;2023-05-10T01:48:52;19.90;99.90
14527;DHT22;7350;51.208;4.238;2023-05-10T01:51:22;19.90;99.90
14527;DHT22;7350;51.208;4.238;2023-05-10T01:53:53;19.90;99.90
14527;DHT22;7350;51.208;4.238;2023-05-10T01:56:23;19.90;99.90
14527;DHT22;7350;51.208;4.238;2023-05-10T01:58:52;19.90;99.90
14527;DHT22;7350;51.208;4.238;2023-05-10T02:01:24;19.90;99.90
14527;DHT22;7350;51.208;4.238;2023-05-10T02:03:54;19.90;99.90
14527;DHT22;7350;51.208;4.238;2023-05-10T02:06:22;19.90;99.90
14527;DHT22;7350;51.208;4.238;2023-05-10T02:08:51;19.90;99.90
14527;DHT22;7350;51.208;4.238;2023-05-10T02:11:20;19.90;99.90
14527;DHT22;7350;51.208;4.238;2023-05-10T02:13:49;19.90;99.90
14527;DHT22;7350;51.208;4.238;2023-05-10T02:16:17;19.90;99.90
14527;DHT22;7350;51.208;4.238;2023-05-10T02:18:45;19.90;99.90
14527;DHT22;7350;51.208;4.238;2023-05-10T02:21:15;19.90;99.90
14527;DHT22;7350;51.208;4.238;2023-05-10T02:23:43;19.90;99.90
14527;DHT22;7350;51.208;4.238;2023-05-10T02:26:10;19.90;99.90
14527;DHT22;7350;51.208;4.238;2023-05-10T02:28:39;19.90;99.90
14527;DHT22;7350;51.208;4.238;2023-05-10T02:31:07;19.90;99.90
14527;DHT22;7350;51.208;4.238;2023-05-10T02:33:37;19.90;99.90
14527;DHT22;7350;51.208;4.238;2023-05-10T02:36:07;19.90;99.90
14527;DHT22;7350;51.208;4.238;2023-05-10T02:38:36;19.90;99.90
14527;DHT22;7350;51.208;4.238;2023-05-10T02:41:04;19.90;99.90
14527;DHT22;7350;51.208;4.238;2023-05-10T02:43:32;19.90;99.90
14527;DHT22;7350;51.208;4.238;2023-05-10T02:45:59;19.90;99.90
14527;DHT22;7350;51.208;4.238;2023-05-10T02:48:27;19.90;99.90
14527;DHT22;7350;51.208;4.238;2023-05-10T02:50:56;19.90;99.90
14527;DHT22;7350;51.208;4.238;2023-05-10T02:53:31;19.90;99.90
14527;DHT22;7350;51.208;4.238;2023-05-10T02:56:07;19.90;99.90
14527;DHT22;7350;51.208;4.238;2023-05-10T02:58:35;19.90;99.90
14527;DHT22;7350;51.208;4.238;2023-05-10T03:01:02;19.90;99.90
14527;DHT22;7350;51.208;4.238;2023-05-10T03:03:29;19.90;99.90
14527;DHT22;7350;51.208;4.238;2023-05-10T03:05:56;20.00;99.90
14527;DHT22;7350;51.208;4.238;2023-05-10T03:08:24;19.90;99.90
14527;DHT22;7350;51.208;4.238;2023-05-10T03:11:01;20.00;99.90
14527;DHT22;7350;51.208;4.238;2023-05-10T03:13:43;20.00;99.90
14527;DHT22;7350;51.208;4.238;2023-05-10T03:16:15;20.00;99.90
14527;DHT22;7350;51.208;4.238;2023-05-10T03:18:47;20.00;99.90
14527;DHT22;7350;51.208;4.238;2023-05-10T03:21:18;20.00;99.90
14527;DHT22;7350;51.208;4.238;2023-05-10T03:23:47;20.00;99.90
14527;DHT22;7350;51.208;4.238;2023-05-10T03:26:20;19.90;99.90
14527;DHT22;7350;51.208;4.238;2023-05-10T03:28:49;19.90;99.90
14527;DHT22;7350;51.208;4.238;2023-05-10T03:31:17;19.90;99.90
14527;DHT22;7350;51.208;4.238;2023-05-10T03:33:47;19.90;99.90
14527;DHT22;7350;51.208;4.238;2023-05-10T03:36:14;20.00;99.90
14527;DHT22;7350;51.208;4.238;2023-05-10T03:38:42;19.90;99.90
14527;DHT22;7350;51.208;4.238;2023-05-10T03:41:09;19.90;99.90
14527;DHT22;7350;51.208;4.238;2023-05-10T03:43:36;19.90;99.90
14527;DHT22;7350;51.208;4.238;2023-05-10T03:46:04;19.90;99.90
14527;DHT22;7350;51.208;4.238;2023-05-10T03:48:32;19.90;99.90
14527;DHT22;7350;51.208;4.238;2023-05-10T03:50:59;19.90;99.90
14527;DHT22;7350;51.208;4.238;2023-05-10T03:53:26;19.90;99.90
14527;DHT22;7350;51.208;4.238;2023-05-10T03:55:53;19.90;99.90
14527;DHT22;7350;51.208;4.238;2023-05-10T03:58:20;20.00;99.90
14527;DHT22;7350;51.208;4.238;2023-05-10T04:00:47;19.90;99.90
14527;DHT22;7350;51.208;4.238;2023-05-10T04:03:16;19.90;99.90
14527;DHT22;7350;51.208;4.238;2023-05-10T04:05:43;19.90;99.90
14527;DHT22;7350;51.208;4.238;2023-05-10T04:08:10;19.90;99.90
14527;DHT22;7350;51.208;4.238;2023-05-10T04:10:37;19.90;99.90
14527;DHT22;7350;51.208;4.238;2023-05-10T04:13:04;19.90;99.90
14527;DHT22;7350;51.208;4.238;2023-05-10T04:15:31;20.00;99.90
14527;DHT22;7350;51.208;4.238;2023-05-10T04:17:58;19.90;99.90
14527;DHT22;7350;51.208;4.238;2023-05-10T04:20:26;19.90;99.90
14527;DHT22;7350;51.208;4.238;2023-05-10T04:22:53;19.90;99.90
14527;DHT22;7350;51.208;4.238;2023-05-10T04:25:20;19.90;99.90
14527;DHT22;7350;51.208;4.238;2023-05-10T04:27:47;19.90;99.90
14527;DHT22;7350;51.208;4.238;2023-05-10T04:30:14;19.90;99.90
14527;DHT22;7350;51.208;4.238;2023-05-10T04:32:41;19.90;99.90
14527;DHT22;7350;51.208;4.238;2023-05-10T04:35:08;19.80;99.90
14527;DHT22;7350;51.208;4.238;2023-05-10T04:37:37;19.90;99.90
14527;DHT22;7350;51.208;4.238;2023-05-10T04:40:05;19.90;99.90
14527;DHT22;7350;51.208;4.238;2023-05-10T04:42:32;19.90;99.90
14527;DHT22;7350;51.208;4.238;2023-05-10T04:44:59;19.90;99.90
14527;DHT22;7350;51.208;4.238;2023-05-10T04:47:26;19.90;99.90
14527;DHT22;7350;51.208;4.238;2023-05-10T04:49:53;19.80;99.90
14527;DHT22;7350;51.208;4.238;2023-05-10T04:52:20;19.90;99.90
14527;DHT22;7350;51.208;4.238;2023-05-10T04:54:48;19.90;99.90
14527;DHT22;7350;51.208;4.238;2023-05-10T04:57:16;19.90;99.90
14527;DHT22;7350;51.208;4.238;2023-05-10T04:59:43;19.80;99.90
14527;DHT22;7350;51.208;4.238;2023-05-10T05:02:10;19.80;99.90
14527;DHT22;7350;51.208;4.238;2023-05-10T05:04:37;19.80;99.90
14527;DHT22;7350;51.208;4.238;2023-05-10T05:07:04;19.80;99.90
14527;DHT22;7350;51.208;4.238;2023-05-10T05:09:30;19.70;99.90
14527;DHT22;7350;51.208;4.238;2023-05-10T05:11:59;19.80;99.90
14527;DHT22;7350;51.208;4.238;2023-05-10T05:14:27;19.80;99.90
14527;DHT22;7350;51.208;4.238;2023-05-10T05:16:53;19.70;99.90
14527;DHT22;7350;51.208;4.238;2023-05-10T05:19:21;19.80;99.90
14527;DHT22;7350;51.208;4.238;2023-05-10T05:21:48;19.80;99.90
14527;DHT22;7350;51.208;4.238;2023-05-10T05:24:15;19.70;99.90
14527;DHT22;7350;51.208;4.238;2023-05-10T05:26:48;19.80;99.90
14527;DHT22;7350;51.208;4.238;2023-05-10T05:29:17;19.70;99.90
14527;DHT22;7350;51.208;4.238;2023-05-10T05:31:43;19.70;99.90
14527;DHT22;7350;51.208;4.238;2023-05-10T05:34:10;19.80;99.90
14527;DHT22;7350;51.208;4.238;2023-05-10T05:36:37;19.70;99.90
14527;DHT22;7350;51.208;4.238;2023-05-10T05:39:04;19.70;99.90
14527;DHT22;7350;51.208;4.238;2023-05-10T05:41:31;19.70;99.90
14527;DHT22;7350;51.208;4.238;2023-05-10T05:43:58;19.70;99.90
14527;DHT22;7350;51.208;4.238;2023-05-10T05:46:27;19.70;99.90
14527;DHT22;7350;51.208;4.238;2023-05-10T05:48:54;19.70;99.90
14527;DHT22;7350;51.208;4.238;2023-05-10T05:51:21;19.70;99.90
14527;DHT22;7350;51.208;4.238;2023-05-10T05:53:47;19.60;99.90
14527;DHT22;7350;51.208;4.238;2023-05-10T05:56:14;19.60;99.90
14527;DHT22;7350;51.208;4.238;2023-05-10T05:58:43;19.60;99.90
14527;DHT22;7350;51.208;4.238;2023-05-10T06:01:10;19.70;99.90
14527;DHT22;7350;51.208;4.238;2023-05-10T06:03:38;19.70;99.90
14527;DHT22;7350;51.208;4.238;2023-05-10T06:06:05;19.60;99.90
14527;DHT22;7350;51.208;4.238;2023-05-10T06:08:32;19.70;99.90
14527;DHT22;7350;51.208;4.238;2023-05-10T06:10:59;19.60;99.90
14527;DHT22;7350;51.208;4.238;2023-05-10T06:13:26;19.60;99.90
14527;DHT22;7350;51.208;4.238;2023-05-10T06:15:57;19.60;99.90
14527;DHT22;7350;51.208;4.238;2023-05-10T06:18:24;19.60;99.90
14527;DHT22;7350;51.208;4.238;2023-05-10T06:20:52;19.60;99.90
14527;DHT22;7350;51.208;4.238;2023-05-10T06:23:19;19.60;99.90
14527;DHT22;7350;51.208;4.238;2023-05-10T06:25:47;19.60;99.90
14527;DHT22;7350;51.208;4.238;2023-05-10T06:28:14;19.60;99.90
14527;DHT22;7350;51.208;4.238;2023-05-10T06:30:41;19.60;99.90
14527;DHT22;7350;51.208;4.238;2023-05-10T06:33:08;19.70;99.90
14527;DHT22;7350;51.208;4.238;2023-05-10T06:35:35;19.70;99.90
14527;DHT22;7350;51.208;4.238;2023-05-10T06:38:06;19.70;99.90
14527;DHT22;7350;51.208;4.238;2023-05-10T06:40:33;19.70;99.90
14527;DHT22;7350;51.208;4.238;2023-05-10T06:42:59;19.70;99.90
14527;DHT22;7350;51.208;4.238;2023-05-10T06:45:26;19.70;99.90
14527;DHT22;7350;51.208;4.238;2023-05-10T06:47:53;19.70;99.90
14527;DHT22;7350;51.208;4.238;2023-05-10T06:50:20;19.70;99.90
14527;DHT22;7350;51.208;4.238;2023-05-10T06:52:47;19.60;99.90
14527;DHT22;7350;51.208;4.238;2023-05-10T06:55:16;19.60;99.90
14527;DHT22;7350;51.208;4.238;2023-05-10T06:57:43;19.60;99.90
14527;DHT22;7350;51.208;4.238;2023-05-10T07:00:10;19.60;99.90
14527;DHT22;7350;51.208;4.238;2023-05-10T07:02:37;19.70;99.90
14527;DHT22;7350;51.208;4.238;2023-05-10T07:05:05;19.70;99.90
14527;DHT22;7350;51.208;4.238;2023-05-10T07:07:32;19.70;99.90
14527;DHT22;7350;51.208;4.238;2023-05-10T07:09:58;19.70;99.90
14527;DHT22;7350;51.208;4.238;2023-05-10T07:12:27;19.60;99.90
14527;DHT22;7350;51.208;4.238;2023-05-10T07:14:54;19.60;99.90
14527;DHT22;7350;51.208;4.238;2023-05-10T07:17:21;19.60;99.90
14527;DHT22;7350;51.208;4.238;2023-05-10T07:19:48;19.60;99.90
14527;DHT22;7350;51.208;4.238;2023-05-10T07:22:15;19.60;99.90
14527;DHT22;7350;51.208;4.238;2023-05-10T07:24:43;19.60;99.90
14527;DHT22;7350;51.208;4.238;2023-05-10T07:27:10;19.60;99.90
14527;DHT22;7350;51.208;4.238;2023-05-10T07:29:38;19.60;99.90
14527;DHT22;7350;51.208;4.238;2023-05-10T07:32:05;19.60;99.90
14527;DHT22;7350;51.208;4.238;2023-05-10T07:34:32;19.60;99.90
14527;DHT22;7350;51.208;4.238;2023-05-10T07:37:00;19.70;99.90
14527;DHT22;7350;51.208;4.238;2023-05-10T07:39:27;19.60;99.90
14527;DHT22;7350;51.208;4.238;2023-05-10T07:41:54;19.70;99.90
14527;DHT22;7350;51.208;4.238;2023-05-10T07:44:21;19.60;99.90
14527;DHT22;7350;51.208;4.238;2023-05-10T07:46:49;19.70;99.90
14527;DHT22;7350;51.208;4.238;2023-05-10T07:49:17;19.70;99.90
14527;DHT22;7350;51.208;4.238;2023-05-10T07:51:44;19.70;99.90
14527;DHT22;7350;51.208;4.238;2023-05-10T07:54:11;19.70;99.90
14527;DHT22;7350;51.208;4.238;2023-05-10T07:56:38;19.70;99.90
14527;DHT22;7350;51.208;4.238;2023-05-10T07:59:07;19.80;99.90
14527;DHT22;7350;51.208;4.238;2023-05-10T08:01:34;19.70;99.90
14527;DHT22;7350;51.208;4.238;2023-05-10T08:04:02;19.70;99.90
14527;DHT22;7350;51.208;4.238;2023-05-10T08:06:29;19.80;99.90
14527;DHT22;7350;51.208;4.238;2023-05-10T08:08:56;19.70;99.90
14527;DHT22;7350;51.208;4.238;2023-05-10T08:11:23;19.70;99.90
14527;DHT22;7350;51.208;4.238;2023-05-10T08:13:51;19.70;99.90
14527;DHT22;7350;51.208;4.238;2023-05-10T08:16:18;19.80;99.90
14527;DHT22;7350;51.208;4.238;2023-05-10T08:18:46;19.80;99.90
14527;DHT22;7350;51.208;4.238;2023-05-10T08:21:16;19.80;99.90
14527;DHT22;7350;51.208;4.238;2023-05-10T08:23:43;19.80;99.90
14527;DHT22;7350;51.208;4.238;2023-05-10T08:26:10;19.80;99.90
14527;DHT22;7350;51.208;4.238;2023-05-10T08:28:37;19.80;99.90
14527;DHT22;7350;51.208;4.238;2023-05-10T08:31:04;19.80;99.90
14527;DHT22;7350;51.208;4.238;2023-05-10T08:33:31;19.80;99.90
14527;DHT22;7350;51.208;4.238;2023-05-10T08:35:58;19.80;99.90
14527;DHT22;7350;51.208;4.238;2023-05-10T08:38:26;19.80;99.90
14527;DHT22;7350;51.208;4.238;2023-05-10T08:40:55;19.80;99.90
14527;DHT22;7350;51.208;4.238;2023-05-10T08:43:27;19.80;99.90
14527;DHT22;7350;51.208;4.238;2023-05-10T08:45:55;19.80;99.90
14527;DHT22;7350;51.208;4.238;2023-05-10T08:48:23;19.80;99.90
14527;DHT22;7350;51.208;4.238;2023-05-10T08:50:53;19.80;99.90
14527;DHT22;7350;51.208;4.238;2023-05-10T08:53:21;19.90;99.90
14527;DHT22;7350;51.208;4.238;2023-05-10T08:55:51;19.90;99.90
14527;DHT22;7350;51.208;4.238;2023-05-10T08:58:19;19.90;99.90
14527;DHT22;7350;51.208;4.238;2023-05-10T09:00:48;19.90;99.90
14527;DHT22;7350;51.208;4.238;2023-05-10T09:03:15;19.90;99.90
14527;DHT22;7350;51.208;4.238;2023-05-10T09:05:42;19.90;99.90
14527;DHT22;7350;51.208;4.238;2023-05-10T09:08:11;20.00;99.90
14527;DHT22;7350;51.208;4.238;2023-05-10T09:10:39;19.90;99.90
14527;DHT22;7350;51.208;4.238;2023-05-10T09:13:10;19.90;99.90
14527;DHT22;7350;51.208;4.238;2023-05-10T09:15:37;19.90;99.90
14527;DHT22;7350;51.208;4.238;2023-05-10T09:18:04;19.90;99.90
14527;DHT22;7350;51.208;4.238;2023-05-10T09:20:31;19.90;99.90
14527;DHT22;7350;51.208;4.238;2023-05-10T09:22:58;19.90;99.90
14527;DHT22;7350;51.208;4.238;2023-05-10T09:25:25;19.90;99.90
14527;DHT22;7350;51.208;4.238;2023-05-10T09:27:52;19.90;99.90
14527;DHT22;7350;51.208;4.238;2023-05-10T09:30:26;19.90;99.90
14527;DHT22;7350;51.208;4.238;2023-05-10T09:32:53;19.90;99.90
14527;DHT22;7350;51.208;4.238;2023-05-10T09:35:22;20.00;99.90
14527;DHT22;7350;51.208;4.238;2023-05-10T09:37:52;20.00;99.90
14527;DHT22;7350;51.208;4.238;2023-05-10T09:40:21;20.00;99.90
14527;DHT22;7350;51.208;4.238;2023-05-10T09:42:53;20.00;99.90
14527;DHT22;7350;51.208;4.238;2023-05-10T09:45:21;20.00;99.90
14527;DHT22;7350;51.208;4.238;2023-05-10T09:47:50;20.00;99.90
14527;DHT22;7350;51.208;4.238;2023-05-10T09:50:17;20.00;99.90
14527;DHT22;7350;51.208;4.238;2023-05-10T09:52:49;20.00;99.90
14527;DHT22;7350;51.208;4.238;2023-05-10T09:55:17;20.00;99.90
14527;DHT22;7350;51.208;4.238;2023-05-10T09:57:45;20.00;99.90
14527;DHT22;7350;51.208;4.238;2023-05-10T10:00:17;20.00;99.90
14527;DHT22;7350;51.208;4.238;2023-05-10T10:02:46;20.10;99.90
14527;DHT22;7350;51.208;4.238;2023-05-10T10:05:14;20.30;99.90
14527;DHT22;7350;51.208;4.238;2023-05-10T10:07:42;20.20;99.90
14527;DHT22;7350;51.208;4.238;2023-05-10T10:10:09;20.20;99.90
14527;DHT22;7350;51.208;4.238;2023-05-10T10:12:40;20.30;99.90
14527;DHT22;7350;51.208;4.238;2023-05-10T10:15:08;20.30;99.90
14527;DHT22;7350;51.208;4.238;2023-05-10T10:17:36;20.30;99.90
14527;DHT22;7350;51.208;4.238;2023-05-10T10:20:05;20.30;99.90
14527;DHT22;7350;51.208;4.238;2023-05-10T10:22:34;20.20;99.90
14527;DHT22;7350;51.208;4.238;2023-05-10T10:25:01;20.20;99.90
14527;DHT22;7350;51.208;4.238;2023-05-10T10:27:36;20.20;99.90
14527;DHT22;7350;51.208;4.238;2023-05-10T10:30:13;20.20;99.90
14527;DHT22;7350;51.208;4.238;2023-05-10T10:32:59;20.20;99.90
14527;DHT22;7350;51.208;4.238;2023-05-10T10:35:29;20.20;99.90
14527;DHT22;7350;51.208;4.238;2023-05-10T10:37:58;20.10;99.90
14527;DHT22;7350;51.208;4.238;2023-05-10T10:40:27;20.10;99.90
14527;DHT22;7350;51.208;4.238;2023-05-10T10:42:54;20.10;99.90
14527;DHT22;7350;51.208;4.238;2023-05-10T10:45:23;20.20;99.90
14527;DHT22;7350;51.208;4.238;2023-05-10T10:50:43;20.20;99.90
14527;DHT22;7350;51.208;4.238;2023-05-10T10:53:12;20.20;99.90
14527;DHT22;7350;51.208;4.238;2023-05-10T10:55:46;20.20;99.90
14527;DHT22;7350;51.208;4.238;2023-05-10T10:58:29;20.10;99.90
14527;DHT22;7350;51.208;4.238;2023-05-10T11:01:12;20.20;99.90
14527;DHT22;7350;51.208;4.238;2023-05-10T11:03:40;20.20;99.90
14527;DHT22;7350;51.208;4.238;2023-05-10T11:06:07;20.20;99.90
14527;DHT22;7350;51.208;4.238;2023-05-10T11:08:41;20.30;99.90
14527;DHT22;7350;51.208;4.238;2023-05-10T11:11:09;20.30;99.90
14527;DHT22;7350;51.208;4.238;2023-05-10T11:13:41;20.30;99.90
14527;DHT22;7350;51.208;4.238;2023-05-10T11:16:14;20.30;99.90
14527;DHT22;7350;51.208;4.238;2023-05-10T11:18:59;20.40;99.90
14527;DHT22;7350;51.208;4.238;2023-05-10T11:21:27;20.40;99.90
14527;DHT22;7350;51.208;4.238;2023-05-10T11:23:56;20.40;99.90
14527;DHT22;7350;51.208;4.238;2023-05-10T11:26:24;20.40;99.90
14527;DHT22;7350;51.208;4.238;2023-05-10T11:28:53;20.40;99.90
14527;DHT22;7350;51.208;4.238;2023-05-10T11:31:22;20.40;99.90
14527;DHT22;7350;51.208;4.238;2023-05-10T11:33:53;20.50;99.90
14527;DHT22;7350;51.208;4.238;2023-05-10T11:36:23;20.50;99.90
14527;DHT22;7350;51.208;4.238;2023-05-10T11:38:51;20.50;99.90
14527;DHT22;7350;51.208;4.238;2023-05-10T11:41:20;20.60;99.90
14527;DHT22;7350;51.208;4.238;2023-05-10T11:43:50;20.60;99.90
14527;DHT22;7350;51.208;4.238;2023-05-10T11:46:19;20.50;99.90
14527;DHT22;7350;51.208;4.238;2023-05-10T11:48:48;20.50;99.90
14527;DHT22;7350;51.208;4.238;2023-05-10T11:51:20;20.50;99.90
14527;DHT22;7350;51.208;4.238;2023-05-10T11:53:48;20.50;99.90
14527;DHT22;7350;51.208;4.238;2023-05-10T11:56:15;20.50;99.90
14527;DHT22;7350;51.208;4.238;2023-05-10T11:58:44;20.50;99.90
14527;DHT22;7350;51.208;4.238;2023-05-10T12:01:12;20.50;99.90
14527;DHT22;7350;51.208;4.238;2023-05-10T12:03:40;20.50;99.90
14527;DHT22;7350;51.208;4.238;2023-05-10T12:06:07;20.50;99.90
14527;DHT22;7350;51.208;4.238;2023-05-10T12:08:34;20.50;99.90
14527;DHT22;7350;51.208;4.238;2023-05-10T12:11:06;20.50;99.90
14527;DHT22;7350;51.208;4.238;2023-05-10T12:13:37;20.50;99.90
14527;DHT22;7350;51.208;4.238;2023-05-10T12:16:15;20.50;99.90
14527;DHT22;7350;51.208;4.238;2023-05-10T12:18:42;20.50;99.90
14527;DHT22;7350;51.208;4.238;2023-05-10T12:21:10;20.50;99.90
14527;DHT22;7350;51.208;4.238;2023-05-10T12:23:38;20.50;99.90
14527;DHT22;7350;51.208;4.238;2023-05-10T12:26:06;20.50;99.90
14527;DHT22;7350;51.208;4.238;2023-05-10T12:28:33;20.40;99.90
14527;DHT22;7350;51.208;4.238;2023-05-10T12:31:01;20.40;99.90
14527;DHT22;7350;51.208;4.238;2023-05-10T12:33:36;20.40;99.90
14527;DHT22;7350;51.208;4.238;2023-05-10T12:36:07;20.40;99.90
14527;DHT22;7350;51.208;4.238;2023-05-10T12:38:36;20.40;99.90
14527;DHT22;7350;51.208;4.238;2023-05-10T12:41:04;20.40;99.90
14527;DHT22;7350;51.208;4.238;2023-05-10T12:43:32;20.40;99.90
14527;DHT22;7350;51.208;4.238;2023-05-10T12:46:04;20.40;99.90
14527;DHT22;7350;51.208;4.238;2023-05-10T12:48:31;20.40;99.90
14527;DHT22;7350;51.208;4.238;2023-05-10T12:51:01;20.30;99.90
14527;DHT22;7350;51.208;4.238;2023-05-10T12:53:28;20.30;99.90
14527;DHT22;7350;51.208;4.238;2023-05-10T12:55:55;20.30;99.90
14527;DHT22;7350;51.208;4.238;2023-05-10T12:58:22;20.40;99.90
14527;DHT22;7350;51.208;4.238;2023-05-10T13:00:50;20.40;99.90
14527;DHT22;7350;51.208;4.238;2023-05-10T13:03:18;20.30;99.90
14527;DHT22;7350;51.208;4.238;2023-05-10T13:05:45;20.30;99.90
14527;DHT22;7350;51.208;4.238;2023-05-10T13:08:13;20.30;99.90
14527;DHT22;7350;51.208;4.238;2023-05-10T13:10:40;20.30;99.90
14527;DHT22;7350;51.208;4.238;2023-05-10T13:13:07;20.30;99.90
14527;DHT22;7350;51.208;4.238;2023-05-10T13:15:35;20.30;99.90
14527;DHT22;7350;51.208;4.238;2023-05-10T13:18:02;20.30;99.90
14527;DHT22;7350;51.208;4.238;2023-05-10T13:20:29;20.30;99.90
14527;DHT22;7350;51.208;4.238;2023-05-10T13:22:56;20.30;99.90
14527;DHT22;7350;51.208;4.238;2023-05-10T13:25:24;20.30;99.90
14527;DHT22;7350;51.208;4.238;2023-05-10T13:27:51;20.30;99.90
14527;DHT22;7350;51.208;4.238;2023-05-10T13:30:18;20.30;99.90
14527;DHT22;7350;51.208;4.238;2023-05-10T13:32:46;20.30;99.90
14527;DHT22;7350;51.208;4.238;2023-05-10T13:35:13;20.30;99.90
14527;DHT22;7350;51.208;4.238;2023-05-10T13:37:39;20.30;99.90
14527;DHT22;7350;51.208;4.238;2023-05-10T13:40:07;20.30;99.90
14527;DHT22;7350;51.208;4.238;2023-05-10T13:42:36;20.30;99.90
14527;DHT22;7350;51.208;4.238;2023-05-10T13:45:03;20.20;99.90
14527;DHT22;7350;51.208;4.238;2023-05-10T13:47:30;20.30;99.90
14527;DHT22;7350;51.208;4.238;2023-05-10T13:49:57;20.30;99.90
14527;DHT22;7350;51.208;4.238;2023-05-10T13:52:24;20.30;99.90
14527;DHT22;7350;51.208;4.238;2023-05-10T13:54:51;20.30;99.90
14527;DHT22;7350;51.208;4.238;2023-05-10T13:57:20;20.30;99.90
14527;DHT22;7350;51.208;4.238;2023-05-10T13:59:48;20.30;99.90
14527;DHT22;7350;51.208;4.238;2023-05-10T14:02:15;20.30;99.90
14527;DHT22;7350;51.208;4.238;2023-05-10T14:04:42;20.30;99.90
14527;DHT22;7350;51.208;4.238;2023-05-10T14:07:09;20.30;99.90
14527;DHT22;7350;51.208;4.238;2023-05-10T14:09:36;20.30;99.90
14527;DHT22;7350;51.208;4.238;2023-05-10T14:12:03;20.30;99.90
14527;DHT22;7350;51.208;4.238;2023-05-10T14:14:30;20.30;99.90
14527;DHT22;7350;51.208;4.238;2023-05-10T14:16:58;20.30;99.90
14527;DHT22;7350;51.208;4.238;2023-05-10T14:19:25;20.30;99.90
14527;DHT22;7350;51.208;4.238;2023-05-10T14:21:53;20.30;99.90
14527;DHT22;7350;51.208;4.238;2023-05-10T14:24:20;20.30;99.90
14527;DHT22;7350;51.208;4.238;2023-05-10T14:26:47;20.40;99.90
14527;DHT22;7350;51.208;4.238;2023-05-10T14:29:14;20.40;99.90
14527;DHT22;7350;51.208;4.238;2023-05-10T14:31:41;20.40;99.90
14527;DHT22;7350;51.208;4.238;2023-05-10T14:34:09;20.40;99.90
14527;DHT22;7350;51.208;4.238;2023-05-10T14:36:36;20.40;99.90
14527;DHT22;7350;51.208;4.238;2023-05-10T14:39:03;20.30;99.90
14527;DHT22;7350;51.208;4.238;2023-05-10T14:41:30;20.40;99.90
14527;DHT22;7350;51.208;4.238;2023-05-10T14:43:57;20.30;99.90
14527;DHT22;7350;51.208;4.238;2023-05-10T14:46:24;20.30;99.90
14527;DHT22;7350;51.208;4.238;2023-05-10T14:48:52;20.30;99.90
14527;DHT22;7350;51.208;4.238;2023-05-10T14:51:20;20.30;99.90
14527;DHT22;7350;51.208;4.238;2023-05-10T14:53:47;20.30;99.90
14527;DHT22;7350;51.208;4.238;2023-05-10T14:56:14;20.30;99.90
14527;DHT22;7350;51.208;4.238;2023-05-10T14:58:41;20.30;99.90
14527;DHT22;7350;51.208;4.238;2023-05-10T15:01:08;20.30;99.90
14527;DHT22;7350;51.208;4.238;2023-05-10T15:03:35;20.30;99.90
14527;DHT22;7350;51.208;4.238;2023-05-10T15:06:03;20.30;99.90
14527;DHT22;7350;51.208;4.238;2023-05-10T15:08:32;20.40;99.90
14527;DHT22;7350;51.208;4.238;2023-05-10T15:10:59;20.30;99.90
14527;DHT22;7350;51.208;4.238;2023-05-10T15:13:26;20.30;99.90
14527;DHT22;7350;51.208;4.238;2023-05-10T15:15:53;20.30;99.90
14527;DHT22;7350;51.208;4.238;2023-05-10T15:18:20;20.30;99.90
14527;DHT22;7350;51.208;4.238;2023-05-10T15:20:47;20.30;99.90
14527;DHT22;7350;51.208;4.238;2023-05-10T15:23:14;20.20;99.90
14527;DHT22;7350;51.208;4.238;2023-05-10T15:25:42;20.20;99.90
14527;DHT22;7350;51.208;4.238;2023-05-10T15:28:09;20.20;99.90
14527;DHT22;7350;51.208;4.238;2023-05-10T15:30:36;20.20;99.90
14527;DHT22;7350;51.208;4.238;2023-05-10T15:33:03;20.30;99.90
14527;DHT22;7350;51.208;4.238;2023-05-10T15:35:30;20.20;99.90
14527;DHT22;7350;51.208;4.238;2023-05-10T15:37:57;20.30;99.90
14527;DHT22;7350;51.208;4.238;2023-05-10T15:40:24;20.20;99.90
14527;DHT22;7350;51.208;4.238;2023-05-10T15:42:52;20.20;99.90
14527;DHT22;7350;51.208;4.238;2023-05-10T15:45:19;20.20;99.90
14527;DHT22;7350;51.208;4.238;2023-05-10T15:47:47;20.20;99.90
14527;DHT22;7350;51.208;4.238;2023-05-10T15:50:14;20.20;99.90
14527;DHT22;7350;51.208;4.238;2023-05-10T15:52:41;20.20;99.90
14527;DHT22;7350;51.208;4.238;2023-05-10T15:55:09;20.20;99.90
14527;DHT22;7350;51.208;4.238;2023-05-10T15:57:37;20.20;99.90
14527;DHT22;7350;51.208;4.238;2023-05-10T16:00:08;20.30;99.90
14527;DHT22;7350;51.208;4.238;2023-05-10T16:02:35;20.20;99.90
14527;DHT22;7350;51.208;4.238;2023-05-10T16:05:03;20.20;99.90
14527;DHT22;7350;51.208;4.238;2023-05-10T16:07:30;20.20;99.90
14527;DHT22;7350;51.208;4.238;2023-05-10T16:09:57;20.30;99.90
14527;DHT22;7350;51.208;4.238;2023-05-10T16:12:24;20.20;99.90
14527;DHT22;7350;51.208;4.238;2023-05-10T16:14:51;20.20;99.90
14527;DHT22;7350;51.208;4.238;2023-05-10T16:17:19;20.30;99.90
14527;DHT22;7350;51.208;4.238;2023-05-10T16:19:46;20.20;99.90
14527;DHT22;7350;51.208;4.238;2023-05-10T16:22:13;20.20;99.90
14527;DHT22;7350;51.208;4.238;2023-05-10T16:24:40;20.20;99.90
14527;DHT22;7350;51.208;4.238;2023-05-10T16:27:07;20.20;99.90
14527;DHT22;7350;51.208;4.238;2023-05-10T16:29:34;20.20;99.90
14527;DHT22;7350;51.208;4.238;2023-05-10T16:32:01;20.20;99.90
14527;DHT22;7350;51.208;4.238;2023-05-10T16:34:29;20.10;99.90
14527;DHT22;7350;51.208;4.238;2023-05-10T16:36:56;20.20;99.90